createdAt,value
2022-11-24T00:01:17.878Z,4.50
2022-11-24T00:03:45.042Z,4.50
2022-11-24T00:06:13.050Z,4.50
2022-11-24T00:08:40.125Z,4.51
2022-11-24T00:11:08.291Z,4.52
2022-11-24T00:13:34.811Z,4.55
2022-11-24T00:16:25.811Z,4.57
2022-11-24T00:18:53.231Z,4.58
2022-11-24T00:21:19.869Z,4.58
2022-11-24T00:23:46.618Z,4.60
2022-11-24T00:26:16.451Z,4.61
2022-11-24T00:28:43.174Z,4.61
2022-11-24T00:31:20.669Z,4.62
2022-11-24T00:33:48.119Z,4.62
2022-11-24T00:36:14.647Z,4.62
2022-11-24T00:38:41.294Z,4.61
2022-11-24T00:41:07.782Z,4.63
2022-11-24T00:43:34.306Z,4.63
2022-11-24T00:46:00.891Z,4.66
2022-11-24T00:48:27.427Z,4.64
2022-11-24T00:51:01.711Z,4.64
2022-11-24T00:53:28.428Z,4.66
2022-11-24T00:55:55.052Z,4.66
2022-11-24T00:58:22.165Z,4.66
2022-11-24T01:00:49.044Z,4.69
2022-11-24T01:03:16.149Z,4.68
2022-11-24T01:05:42.653Z,4.68
2022-11-24T01:08:09.391Z,4.69
2022-11-24T01:10:36.043Z,4.72
2022-11-24T01:13:02.595Z,4.74
2022-11-24T01:15:30.224Z,4.76
2022-11-24T01:17:57.025Z,4.80
2022-11-24T01:20:23.828Z,4.80
2022-11-24T01:22:50.355Z,4.80
2022-11-24T01:25:16.950Z,4.80
2022-11-24T01:27:43.407Z,4.80
2022-11-24T01:30:11.058Z,4.82
2022-11-24T01:32:37.559Z,4.83
2022-11-24T01:35:04.715Z,4.83
2022-11-24T01:37:31.337Z,4.87
2022-11-24T01:39:57.901Z,4.88
2022-11-24T01:42:24.454Z,4.91
2022-11-24T01:45:25.852Z,4.94
2022-11-24T01:47:52.308Z,4.95
2022-11-24T01:50:19.043Z,4.98
2022-11-24T01:52:48.007Z,4.96
2022-11-24T01:55:22.072Z,4.94
2022-11-24T01:57:54.580Z,4.92
2022-11-24T02:00:21.065Z,4.82
2022-11-24T02:02:47.636Z,4.77
2022-11-24T02:05:23.373Z,4.74
2022-11-24T02:07:49.897Z,4.72
2022-11-24T02:10:16.522Z,4.71
2022-11-24T02:12:47.161Z,4.68
2022-11-24T02:15:17.152Z,4.63
2022-11-24T02:17:44.048Z,4.59
2022-11-24T02:20:11.270Z,4.56
2022-11-24T02:22:56.021Z,4.49
2022-11-24T02:25:34.576Z,4.45
2022-11-24T02:28:01.491Z,4.44
2022-11-24T02:30:27.965Z,4.44
2022-11-24T02:32:54.556Z,4.44
2022-11-24T02:35:21.085Z,4.47
2022-11-24T02:37:47.624Z,4.52
2022-11-24T02:40:16.212Z,4.56
2022-11-24T02:42:43.395Z,4.59
2022-11-24T02:45:10.264Z,4.61
2022-11-24T02:47:36.747Z,4.63
2022-11-24T02:50:03.713Z,4.61
2022-11-24T02:52:30.153Z,4.62
2022-11-24T02:54:56.619Z,4.62
2022-11-24T02:57:23.399Z,4.60
2022-11-24T02:59:49.933Z,4.57
2022-11-24T03:02:16.422Z,4.53
2022-11-24T03:04:44.625Z,4.53
2022-11-24T03:07:11.149Z,4.52
2022-11-24T03:09:37.664Z,4.54
2022-11-24T03:12:04.299Z,4.54
2022-11-24T03:14:30.794Z,4.54
2022-11-24T03:16:57.268Z,4.57
2022-11-24T03:19:23.778Z,4.60
2022-11-24T03:21:50.254Z,4.63
2022-11-24T03:24:16.704Z,4.68
2022-11-24T03:26:44.312Z,4.69
2022-11-24T03:29:10.873Z,4.74
2022-11-24T03:31:37.440Z,4.80
2022-11-24T03:34:03.955Z,4.82
2022-11-24T03:36:30.473Z,4.82
2022-11-24T03:38:56.936Z,4.89
2022-11-24T03:41:23.416Z,4.91
2022-11-24T03:43:49.864Z,4.93
2022-11-24T03:46:16.364Z,4.97
2022-11-24T03:48:42.832Z,5.01
2022-11-24T03:51:09.601Z,5.04
2022-11-24T03:53:36.056Z,5.07
2022-11-24T03:56:02.631Z,5.12
2022-11-24T03:58:29.295Z,5.20
2022-11-24T04:00:56.114Z,5.25
2022-11-24T04:03:22.790Z,5.29
2022-11-24T04:05:49.348Z,5.29
2022-11-24T04:08:15.989Z,5.27
2022-11-24T04:10:42.499Z,5.31
2022-11-24T04:13:13.827Z,5.31
2022-11-24T04:15:40.651Z,5.30
2022-11-24T04:18:07.494Z,5.32
2022-11-24T04:20:34.225Z,5.33
2022-11-24T04:23:00.819Z,5.31
2022-11-24T04:25:27.218Z,5.29
2022-11-24T04:27:54.365Z,5.27
2022-11-24T04:30:21.281Z,5.29
2022-11-24T04:32:47.793Z,5.28
2022-11-24T04:35:14.254Z,5.31
2022-11-24T04:37:40.740Z,5.35
2022-11-24T04:40:08.287Z,5.42
2022-11-24T04:42:34.765Z,5.47
2022-11-24T04:45:01.290Z,5.49
2022-11-24T04:47:27.703Z,5.50
2022-11-24T04:49:54.198Z,5.53
2022-11-24T04:52:21.820Z,5.53
2022-11-24T04:54:48.584Z,5.55
2022-11-24T04:57:19.470Z,5.58
2022-11-24T04:59:45.923Z,5.64
2022-11-24T05:02:12.490Z,5.66
2022-11-24T05:04:39.020Z,5.69
2022-11-24T05:07:05.558Z,5.69
2022-11-24T05:09:54.908Z,5.74
2022-11-24T05:12:18.262Z,5.73
2022-11-24T05:14:44.630Z,5.77
2022-11-24T05:17:10.968Z,5.81
2022-11-24T05:19:37.324Z,5.82
2022-11-24T05:22:03.828Z,5.81
2022-11-24T05:24:30.230Z,5.81
2022-11-24T05:26:56.647Z,5.79
2022-11-24T05:29:23.000Z,5.78
2022-11-24T05:31:49.437Z,5.78
2022-11-24T05:34:15.886Z,5.83
2022-11-24T05:36:54.500Z,5.82
2022-11-24T05:39:21.315Z,5.83
2022-11-24T05:41:47.751Z,5.81
2022-11-24T05:44:14.115Z,5.82
2022-11-24T05:46:40.527Z,5.81
2022-11-24T05:49:06.925Z,5.80
2022-11-24T05:51:33.374Z,5.77
2022-11-24T05:53:59.744Z,5.81
2022-11-24T05:56:26.139Z,5.79
2022-11-24T05:58:52.589Z,5.77
2022-11-24T06:01:18.966Z,5.84
2022-11-24T06:03:45.341Z,5.83
2022-11-24T06:06:11.709Z,5.78
2022-11-24T06:08:38.055Z,5.85
2022-11-24T06:11:19.614Z,5.85
2022-11-24T06:13:47.555Z,5.93
2022-11-24T06:16:14.657Z,5.98
2022-11-24T06:18:41.135Z,6.01
2022-11-24T06:21:11.828Z,6.08
2022-11-24T06:23:38.791Z,6.12
2022-11-24T06:26:05.296Z,6.20
2022-11-24T06:28:31.801Z,6.23
2022-11-24T06:31:07.179Z,6.24
2022-11-24T06:33:34.352Z,6.25
2022-11-24T06:36:08.197Z,6.24
2022-11-24T06:38:34.843Z,6.18
2022-11-24T06:41:01.726Z,6.12
2022-11-24T06:43:28.954Z,6.13
2022-11-24T06:45:55.811Z,6.11
2022-11-24T06:48:22.849Z,6.11
2022-11-24T06:50:49.394Z,6.19
2022-11-24T06:53:15.804Z,6.22
2022-11-24T06:55:42.304Z,6.24
2022-11-24T06:58:08.666Z,6.29
2022-11-24T07:00:35.030Z,6.28
2022-11-24T07:03:01.430Z,6.20
2022-11-24T07:05:28.060Z,6.18
2022-11-24T07:07:54.433Z,6.14
2022-11-24T07:10:20.807Z,6.17
2022-11-24T07:12:47.148Z,6.23
2022-11-24T07:15:14.223Z,6.27
2022-11-24T07:17:40.795Z,6.30
2022-11-24T07:20:08.440Z,6.34
2022-11-24T07:22:34.869Z,6.40
2022-11-24T07:25:01.749Z,6.49
2022-11-24T07:27:28.395Z,6.55
2022-11-24T07:29:54.738Z,6.59
2022-11-24T07:32:21.178Z,6.61
2022-11-24T07:34:47.566Z,6.63
2022-11-24T07:37:13.917Z,6.68
2022-11-24T07:39:40.273Z,6.70
2022-11-24T07:42:08.399Z,6.68
2022-11-24T07:44:34.955Z,6.65
2022-11-24T07:47:01.440Z,6.65
2022-11-24T07:49:27.796Z,6.63
2022-11-24T07:51:54.205Z,6.55
2022-11-24T07:54:20.591Z,6.57
2022-11-24T07:56:49.969Z,6.55
2022-11-24T07:59:16.313Z,6.52
2022-11-24T08:01:42.733Z,6.55
2022-11-24T08:04:09.204Z,6.58
2022-11-24T08:06:41.916Z,6.57
2022-11-24T08:09:10.916Z,6.48
2022-11-24T08:11:37.386Z,6.41
2022-11-24T08:14:03.739Z,6.43
2022-11-24T08:16:30.118Z,6.53
2022-11-24T08:18:56.643Z,6.53
2022-11-24T08:21:23.611Z,6.63
2022-11-24T08:23:53.290Z,6.65
2022-11-24T08:26:19.663Z,6.67
2022-11-24T08:28:46.451Z,6.64
2022-11-24T08:31:15.933Z,6.69
2022-11-24T08:33:42.473Z,6.70
2022-11-24T08:36:10.429Z,6.68
2022-11-24T08:38:36.910Z,6.71
2022-11-24T08:41:07.496Z,6.73
2022-11-24T08:43:33.905Z,6.78
2022-11-24T08:46:04.605Z,6.80
2022-11-24T08:48:30.967Z,6.87
2022-11-24T08:50:57.895Z,6.87
2022-11-24T08:53:24.670Z,6.90
2022-11-24T08:55:51.135Z,6.94
2022-11-24T08:58:17.638Z,6.97
2022-11-24T09:00:44.067Z,7.01
2022-11-24T09:03:10.868Z,7.09
2022-11-24T09:05:51.612Z,7.16
2022-11-24T09:08:18.347Z,7.23
2022-11-24T09:10:44.753Z,7.28
2022-11-24T09:13:11.105Z,7.35
2022-11-24T09:15:37.544Z,7.41
2022-11-24T09:18:03.914Z,7.47
2022-11-24T09:20:30.266Z,7.53
2022-11-24T09:22:56.660Z,7.57
2022-11-24T09:25:23.626Z,7.57
2022-11-24T09:27:50.853Z,7.62
2022-11-24T09:30:17.266Z,7.67
2022-11-24T09:32:43.644Z,7.73
2022-11-24T09:35:10.008Z,7.80
2022-11-24T09:37:36.387Z,7.83
2022-11-24T09:40:02.868Z,7.87
2022-11-24T09:42:32.247Z,7.94
2022-11-24T09:45:12.775Z,8.00
2022-11-24T09:47:56.640Z,8.08
2022-11-24T09:50:24.366Z,8.15
2022-11-24T09:53:21.465Z,8.18
2022-11-24T09:55:52.358Z,8.29
2022-11-24T09:58:24.632Z,8.34
2022-11-24T10:00:52.036Z,8.33
2022-11-24T10:03:30.188Z,8.35
2022-11-24T10:05:56.559Z,8.42
2022-11-24T10:08:38.329Z,8.45
2022-11-24T10:11:12.925Z,8.53
2022-11-24T10:13:57.858Z,8.55
2022-11-24T10:16:45.868Z,8.59
2022-11-24T10:19:15.061Z,8.56
2022-11-24T10:22:00.178Z,8.59
2022-11-24T10:24:32.607Z,8.60
2022-11-24T10:27:03.887Z,8.66
2022-11-24T10:29:37.776Z,8.69
2022-11-24T10:32:05.874Z,8.70
2022-11-24T10:34:37.839Z,8.70
2022-11-24T10:37:33.506Z,8.69
2022-11-24T10:40:10.814Z,8.73
2022-11-24T10:42:43.494Z,8.80
2022-11-24T10:45:14.954Z,8.78
2022-11-24T10:47:41.835Z,8.84
2022-11-24T10:50:11.310Z,8.86
2022-11-24T10:52:41.124Z,8.91
2022-11-24T10:55:07.634Z,8.96
2022-11-24T10:57:35.851Z,8.94
2022-11-24T11:00:04.971Z,8.97
2022-11-24T11:02:38.583Z,8.99
2022-11-24T11:05:25.571Z,8.99
2022-11-24T11:08:20.226Z,9.01
2022-11-24T11:10:48.188Z,9.00
2022-11-24T11:13:28.447Z,9.01
2022-11-24T11:15:55.730Z,9.09
2022-11-24T11:18:22.214Z,9.11
2022-11-24T11:20:50.232Z,9.13
2022-11-24T11:23:21.474Z,9.15
2022-11-24T11:25:48.371Z,9.21
2022-11-24T11:28:18.350Z,9.35
2022-11-24T11:31:20.084Z,9.54
2022-11-24T11:34:13.911Z,9.63
2022-11-24T11:36:50.776Z,9.74
2022-11-24T11:39:37.999Z,9.70
2022-11-24T11:45:16.670Z,9.74
2022-11-24T11:47:46.062Z,9.81
2022-11-24T11:50:13.399Z,9.87
2022-11-24T11:53:01.482Z,9.94
2022-11-24T11:55:56.298Z,10.00
2022-11-24T11:58:45.132Z,10.03
2022-11-24T12:01:23.560Z,10.00
2022-11-24T12:04:19.252Z,9.97
2022-11-24T12:06:48.560Z,9.96
2022-11-24T12:09:22.560Z,9.89
2022-11-24T12:11:58.080Z,9.86
2022-11-24T12:14:24.412Z,9.88
2022-11-24T12:17:03.036Z,9.93
2022-11-24T12:19:48.244Z,9.98
2022-11-24T12:22:24.901Z,10.03
2022-11-24T12:25:11.917Z,10.04
2022-11-24T12:27:46.440Z,10.10
2022-11-24T12:30:17.364Z,10.08
2022-11-24T12:33:01.943Z,10.17
2022-11-24T12:35:48.637Z,10.23
2022-11-24T12:38:33.800Z,10.29
2022-11-24T12:41:41.818Z,10.40
2022-11-24T12:44:37.071Z,10.46
2022-11-24T12:47:25.217Z,10.57
2022-11-24T12:50:06.757Z,10.50
2022-11-24T12:52:35.467Z,10.46
2022-11-24T12:55:01.832Z,10.47
2022-11-24T12:57:32.876Z,10.50
2022-11-24T13:00:02.247Z,10.53
2022-11-24T13:02:52.235Z,10.53
2022-11-24T13:05:37.618Z,10.51
2022-11-24T13:08:04.913Z,10.50
2022-11-24T13:10:55.429Z,10.52
2022-11-24T13:13:23.270Z,10.56
2022-11-24T13:16:07.022Z,10.59
2022-11-24T13:19:00.203Z,10.62
2022-11-24T13:21:35.677Z,10.60
2022-11-24T13:24:04.207Z,10.61
2022-11-24T13:26:51.864Z,10.59
2022-11-24T13:29:27.584Z,10.58
2022-11-24T13:31:54.941Z,10.54
2022-11-24T13:34:39.988Z,10.47
2022-11-24T13:37:31.898Z,10.43
2022-11-24T13:40:11.768Z,10.37
2022-11-24T13:42:58.711Z,10.36
2022-11-24T13:45:44.940Z,10.34
2022-11-24T13:48:20.803Z,10.32
2022-11-24T13:50:51.074Z,10.31
2022-11-24T13:53:36.358Z,10.27
2022-11-24T13:56:03.888Z,10.21
2022-11-24T13:58:34.629Z,10.18
2022-11-24T14:01:02.196Z,10.10
2022-11-24T14:03:36.533Z,10.03
2022-11-24T14:06:03.245Z,10.02
2022-11-24T14:08:34.253Z,9.95
2022-11-24T14:11:01.342Z,9.93
2022-11-24T14:13:34.374Z,9.87
2022-11-24T14:16:06.977Z,9.84
2022-11-24T14:18:33.838Z,9.85
2022-11-24T14:21:02.093Z,9.84
2022-11-24T14:23:28.470Z,9.83
2022-11-24T14:25:54.878Z,9.80
2022-11-24T14:28:28.585Z,9.75
2022-11-24T14:31:08.688Z,9.72
2022-11-24T14:33:35.950Z,9.70
2022-11-24T14:36:02.318Z,9.66
2022-11-24T14:38:28.661Z,9.61
2022-11-24T14:40:55.365Z,9.56
2022-11-24T14:43:22.224Z,9.55
2022-11-24T14:46:05.931Z,9.56
2022-11-24T14:48:36.662Z,9.56
2022-11-24T14:51:16.778Z,9.53
2022-11-24T14:53:43.991Z,9.50
2022-11-24T14:56:26.648Z,9.50
2022-11-24T14:58:53.478Z,9.44
2022-11-24T15:01:29.664Z,9.43
2022-11-24T15:04:46.248Z,9.40
2022-11-24T15:07:06.719Z,9.32
2022-11-24T15:09:38.475Z,9.30
2022-11-24T15:12:28.532Z,9.27
2022-11-24T15:15:02.561Z,9.28
2022-11-24T15:17:29.416Z,9.22
2022-11-24T15:20:10.989Z,9.19
2022-11-24T15:22:39.597Z,9.10
2022-11-24T15:25:33.345Z,9.01
2022-11-24T15:28:00.254Z,8.95
2022-11-24T15:30:26.845Z,8.88
2022-11-24T15:32:57.623Z,8.80
2022-11-24T15:35:25.304Z,8.72
2022-11-24T15:37:51.923Z,8.70
2022-11-24T15:40:18.553Z,8.65
2022-11-24T15:42:50.667Z,8.64
2022-11-24T15:45:17.108Z,8.62
2022-11-24T15:47:43.497Z,8.59
2022-11-24T15:50:10.368Z,8.56
2022-11-24T15:52:36.825Z,8.53
2022-11-24T15:55:03.409Z,8.52
2022-11-24T15:57:29.877Z,8.44
2022-11-24T15:59:56.216Z,8.41
2022-11-24T16:02:22.713Z,8.31
2022-11-24T16:04:49.311Z,8.29
2022-11-24T16:07:15.745Z,8.22
2022-11-24T16:09:42.177Z,8.09
2022-11-24T16:12:08.632Z,7.96
2022-11-24T16:14:36.057Z,7.85
2022-11-24T16:17:02.718Z,7.73
2022-11-24T16:19:29.221Z,7.63
2022-11-24T16:21:55.564Z,7.52
2022-11-24T16:24:21.961Z,7.46
2022-11-24T16:26:48.298Z,7.38
2022-11-24T16:29:14.937Z,7.30
2022-11-24T16:31:43.424Z,7.21
2022-11-24T16:34:10.100Z,7.15
2022-11-24T16:36:36.445Z,7.14
2022-11-24T16:39:02.885Z,7.13
2022-11-24T16:41:29.225Z,7.30
2022-11-24T16:43:55.667Z,7.49
2022-11-24T16:46:23.487Z,7.61
2022-11-24T16:48:51.254Z,7.71
2022-11-24T16:51:18.737Z,7.76
2022-11-24T16:53:45.088Z,7.83
2022-11-24T16:56:11.696Z,7.92
2022-11-24T16:58:38.857Z,7.95
2022-11-24T17:01:10.398Z,7.95
2022-11-24T17:03:39.973Z,7.93
2022-11-24T17:06:07.518Z,7.92
2022-11-24T17:08:34.866Z,7.90
2022-11-24T17:11:14.821Z,7.88
2022-11-24T17:13:41.574Z,7.85
2022-11-24T17:16:10.088Z,7.82
2022-11-24T17:18:36.593Z,7.75
2022-11-24T17:21:07.671Z,7.73
2022-11-24T17:23:34.400Z,7.77
2022-11-24T17:26:08.035Z,7.80
2022-11-24T17:28:35.107Z,7.76
2022-11-24T17:31:07.806Z,7.75
2022-11-24T17:33:34.706Z,7.71
2022-11-24T17:36:04.897Z,7.66
2022-11-24T17:38:31.296Z,7.62
2022-11-24T17:40:57.973Z,7.62
2022-11-24T17:43:24.570Z,7.52
2022-11-24T17:45:55.100Z,7.47
2022-11-24T17:48:21.593Z,7.45
2022-11-24T17:50:48.026Z,7.48
2022-11-24T17:53:14.702Z,7.50
2022-11-24T17:55:41.922Z,7.51
2022-11-24T17:58:08.317Z,7.52
2022-11-24T18:00:34.673Z,7.44
2022-11-24T18:03:01.372Z,7.36
2022-11-24T18:05:27.747Z,7.33
2022-11-24T18:07:55.026Z,7.36
2022-11-24T18:10:21.427Z,7.30
2022-11-24T18:12:47.842Z,7.28
2022-11-24T18:15:14.291Z,7.26
2022-11-24T18:17:40.653Z,7.25
2022-11-24T18:20:07.646Z,7.24
2022-11-24T18:23:04.160Z,7.18
2022-11-24T18:25:20.446Z,7.14
2022-11-24T18:27:46.907Z,7.11
2022-11-24T18:30:13.532Z,7.09
2022-11-24T18:32:39.948Z,7.06
2022-11-24T18:35:06.552Z,7.07
2022-11-24T18:37:33.721Z,7.03
2022-11-24T18:40:00.184Z,7.03
2022-11-24T18:42:26.806Z,7.06
2022-11-24T18:44:54.341Z,7.03
2022-11-24T18:47:20.823Z,7.03
2022-11-24T18:49:47.198Z,7.06
2022-11-24T18:52:13.565Z,7.06
2022-11-24T18:54:40.056Z,7.06
2022-11-24T18:57:06.430Z,7.06
2022-11-24T18:59:32.782Z,7.05
2022-11-24T19:01:59.255Z,6.96
2022-11-24T19:04:26.192Z,6.91
2022-11-24T19:06:52.553Z,6.89
2022-11-24T19:09:20.503Z,6.86
2022-11-24T19:11:47.057Z,6.93
2022-11-24T19:14:15.526Z,6.99
2022-11-24T19:16:42.304Z,7.00
2022-11-24T19:19:08.879Z,6.99
2022-11-24T19:21:37.477Z,6.98
2022-11-24T19:24:05.876Z,6.97
2022-11-24T19:26:35.941Z,7.00
2022-11-24T19:29:03.034Z,6.99
2022-11-24T19:31:29.571Z,6.97
2022-11-24T19:33:58.283Z,6.94
2022-11-24T19:36:25.999Z,6.82
2022-11-24T19:38:53.846Z,6.76
2022-11-24T19:41:21.448Z,6.65
2022-11-24T19:43:48.240Z,6.54
2022-11-24T19:46:18.724Z,6.41
2022-11-24T19:48:57.083Z,6.35
2022-11-24T19:51:25.424Z,6.36
2022-11-24T19:53:51.828Z,6.39
2022-11-24T19:56:25.555Z,6.44
2022-11-24T19:58:52.125Z,6.43
2022-11-24T20:01:20.545Z,6.52
2022-11-24T20:03:49.228Z,6.55
2022-11-24T20:06:15.924Z,6.55
2022-11-24T20:08:42.710Z,6.55
2022-11-24T20:11:14.119Z,6.61
2022-11-24T20:13:41.359Z,6.55
2022-11-24T20:16:12.494Z,6.45
2022-11-24T20:18:42.107Z,6.36
2022-11-24T20:21:10.700Z,6.30
2022-11-24T20:23:37.077Z,6.19
2022-11-24T20:26:14.478Z,6.11
2022-11-24T20:28:41.050Z,6.04
2022-11-24T20:31:09.278Z,5.91
2022-11-24T20:33:35.896Z,5.85
2022-11-24T20:36:04.129Z,5.80
2022-11-24T20:38:30.800Z,5.72
2022-11-24T20:41:09.219Z,5.60
2022-11-24T20:43:36.415Z,5.48
2022-11-24T20:46:13.525Z,5.40
2022-11-24T20:48:39.958Z,5.29
2022-11-24T20:51:14.027Z,5.20
2022-11-24T20:53:40.435Z,5.13
2022-11-24T20:56:08.666Z,5.04
2022-11-24T20:58:35.341Z,4.97
2022-11-24T21:01:18.731Z,4.91
2022-11-24T21:03:45.745Z,4.81
2022-11-24T21:06:12.769Z,4.75
2022-11-24T21:08:40.279Z,4.70
2022-11-24T21:11:06.913Z,4.63
2022-11-24T21:13:34.120Z,4.56
2022-11-24T21:16:00.674Z,4.51
2022-11-24T21:18:27.205Z,4.45
2022-11-24T21:20:53.551Z,4.40
2022-11-24T21:23:20.506Z,4.34
2022-11-24T21:25:46.836Z,4.28
2022-11-24T21:28:13.265Z,4.24
2022-11-24T21:30:39.743Z,4.21
2022-11-24T21:33:06.261Z,4.19
2022-11-24T21:35:36.088Z,4.15
2022-11-24T21:38:03.223Z,4.14
2022-11-24T21:40:29.654Z,4.13
2022-11-24T21:42:58.357Z,4.08
2022-11-24T21:45:24.942Z,4.03
2022-11-24T21:47:51.417Z,3.99
2022-11-24T21:50:17.884Z,3.93
2022-11-24T21:52:44.237Z,3.89
2022-11-24T21:55:10.681Z,3.84
2022-11-24T21:57:37.029Z,3.80
2022-11-24T22:00:03.901Z,3.71
2022-11-24T22:02:30.277Z,3.70
2022-11-24T22:04:56.637Z,3.64
2022-11-24T22:07:23.046Z,3.60
2022-11-24T22:09:49.786Z,3.55
2022-11-24T22:12:16.406Z,3.52
2022-11-24T22:14:43.068Z,3.49
2022-11-24T22:17:09.773Z,3.46
2022-11-24T22:19:36.125Z,3.42
2022-11-24T22:22:02.486Z,3.44
2022-11-24T22:24:28.819Z,3.40
2022-11-24T22:26:55.171Z,3.38
2022-11-24T22:29:21.553Z,3.35
2022-11-24T22:31:47.953Z,3.31
2022-11-24T22:34:14.393Z,3.29
2022-11-24T22:36:40.787Z,3.24
2022-11-24T22:39:10.455Z,3.21
2022-11-24T22:41:36.857Z,3.13
2022-11-24T22:44:03.823Z,3.10
2022-11-24T22:46:30.568Z,3.06
2022-11-24T22:48:58.614Z,3.04
2022-11-24T22:51:29.515Z,3.02
2022-11-24T22:53:57.378Z,2.95
2022-11-24T22:56:23.828Z,2.91
2022-11-24T22:58:50.272Z,2.80
2022-11-24T23:01:21.224Z,2.82
2022-11-24T23:03:48.662Z,2.78
2022-11-24T23:06:16.544Z,2.74
2022-11-24T23:08:43.026Z,2.69
2022-11-24T23:11:11.647Z,2.65
2022-11-24T23:13:38.063Z,2.65
2022-11-24T23:16:09.787Z,2.61
2022-11-24T23:18:36.232Z,2.61
2022-11-24T23:21:22.536Z,2.55
2022-11-24T23:23:49.331Z,2.54
2022-11-24T23:26:20.193Z,2.47
2022-11-24T23:28:46.717Z,2.48
2022-11-24T23:31:17.942Z,2.45
2022-11-24T23:33:44.393Z,2.42
2022-11-24T23:36:12.673Z,2.41
2022-11-24T23:38:39.556Z,2.40
2022-11-24T23:41:07.745Z,2.35
2022-11-24T23:43:34.522Z,2.30
2022-11-24T23:46:37.751Z,2.28
2022-11-24T23:49:04.176Z,2.26
2022-11-24T23:51:31.987Z,2.20
2022-11-24T23:53:58.909Z,2.21
2022-11-24T23:56:32.241Z,2.19
2022-11-24T23:58:59.237Z,2.17
